KLAA

Lamar Municipal Airport

Lamar, Colorado, USA
METAR KLAA 141753Z AUTO 28006KT 10SM CLR 07/M10 A3032 RMK AO2 SLP290 T00671100 10067 21117 50000
Observed Flight Rules
Dec-14 @ 17:53 UTC (28 minutes ago) Visual Flight Rules
Wind Visibility Clouds
280° at 6 knots 10 miles
  • Clear skies
Temperatures Readings
Current 7°C / 45°F
Dewpoint -10°C / 14°F
Humidity 29%
Altimeter 30.32" Hg
Pressure 1029 hPa
Elevation 1119
METAR KLAA 141753Z AUTO 28006KT 10SM CLR 07/M10 A3032 RMK AO2 SLP290 T00671100 10067 21117 50000
Observed Flight Rules
Dec-14 @ 17:53 UTC
(28 minutes ago)
VFR
Wind Visibility
280° at 6 knots 10 miles
Clouds
  • Clear skies
Temperature Dewpoint
7°C / 45°F -10°C / 14°F
Humidity Altimeter Pressure
29% 30.32" Hg 1029 hPa